Time;durP1;ratioP1;P1;durP2;ratioP2;P2;SDS_P1;SDS_P2;PMS_P1;PMS_P2;Temp;Humidity;BMP_temperature;BMP_pressure;BME280_temperature;BME280_humidity;BME280_pressure;Samples;Min_cycle;Max_cycle;Signal;HPM_P1;HPM_P2
2022/06/03 00:01:53;;;;;;;24.08;14.13;;;20.80;99.90;;;;;;5022456;28;20491;-70
2022/06/03 00:04:47;;;;;;;19.45;13.05;;;20.80;99.90;;;;;;5034499;28;20539;-71
2022/06/03 00:07:36;;;;;;;21.65;12.50;;;20.80;99.90;;;;;;5019492;28;20071;-72
2022/06/03 00:10:25;;;;;;;18.10;12.07;;;20.80;99.90;;;;;;5020720;28;20152;-71
2022/06/03 00:13:12;;;;;;;17.42;11.40;;;20.90;99.90;;;;;;5036160;28;20064;-72
2022/06/03 00:16:15;;;;;;;19.05;11.63;;;20.80;99.90;;;;;;5019550;28;20041;-71
2022/06/03 00:18:41;;;;;;;;;;;20.80;99.90;;;;;;5033390;28;20049;-71
2022/06/03 00:21:13;;;;;;;20.33;11.25;;;20.80;99.90;;;;;;5039743;28;19979;-72
2022/06/03 00:23:57;;;;;;;20.52;11.55;;;20.80;99.90;;;;;;5035993;28;20030;-72
2022/06/03 00:26:26;;;;;;;21.08;11.63;;;20.90;99.90;;;;;;5020113;28;20045;-73
2022/06/03 00:29:31;;;;;;;16.92;10.35;;;20.80;99.90;;;;;;5020600;28;20401;-72
2022/06/03 00:33:10;;;;;;;19.48;9.48;;;20.70;99.90;;;;;;5017525;28;20075;-72
2022/06/03 00:35:42;;;;;;;18.10;9.32;;;20.70;99.90;;;;;;4931336;28;20039;-71
2022/06/03 00:38:37;;;;;;;17.17;9.85;;;20.50;99.90;;;;;;4936747;28;20661;-70
2022/06/03 00:41:37;;;;;;;17.58;10.07;;;20.50;99.90;;;;;;4988464;28;20405;-72
2022/06/03 00:44:21;;;;;;;17.88;10.25;;;20.50;99.90;;;;;;5018186;28;20040;-71
2022/06/03 00:47:16;;;;;;;16.30;9.90;;;20.50;99.90;;;;;;5019228;28;20041;-71
2022/06/03 00:50:07;;;;;;;17.88;9.65;;;20.50;99.90;;;;;;5010369;28;20523;-72
2022/06/03 00:52:48;;;;;;;20.83;12.15;;;20.30;99.90;;;;;;5019590;28;20485;-72
2022/06/03 00:55:41;;;;;;;21.17;12.38;;;20.10;99.90;;;;;;5031398;28;20037;-72
2022/06/03 00:58:35;;;;;;;22.02;11.73;;;19.90;99.90;;;;;;5036906;28;20044;-72
2022/06/03 01:01:04;;;;;;;23.70;11.70;;;19.80;99.90;;;;;;5018912;28;20084;-71
2022/06/03 01:03:39;;;;;;;21.25;12.27;;;19.60;99.90;;;;;;5035822;28;20446;-71
2022/06/03 01:06:36;;;;;;;21.48;12.25;;;19.60;99.90;;;;;;5018693;28;20041;-71
2022/06/03 01:09:23;;;;;;;21.30;12.07;;;19.60;99.90;;;;;;5033651;28;20124;-72
2022/06/03 01:12:07;;;;;;;20.08;11.98;;;19.50;99.90;;;;;;5018900;28;20041;-71
2022/06/03 01:14:46;;;;;;;21.20;10.98;;;19.60;99.90;;;;;;5034026;28;20036;-70
2022/06/03 01:17:23;;;;;;;21.83;11.75;;;19.60;99.90;;;;;;5017712;28;20075;-71
2022/06/03 01:20:07;;;;;;;19.45;10.48;;;19.70;99.90;;;;;;5030448;28;20045;-71
2022/06/03 01:23:14;;;;;;;21.13;10.90;;;19.70;99.90;;;;;;5033778;28;20029;-71
2022/06/03 01:26:02;;;;;;;18.67;10.57;;;19.80;99.90;;;;;;5018456;28;20053;-71
2022/06/03 01:28:44;;;;;;;22.40;11.02;;;19.80;99.90;;;;;;5022805;28;20037;-71
2022/06/03 01:31:31;;;;;;;21.13;11.02;;;19.80;99.90;;;;;;5037050;28;20393;-71
2022/06/03 01:34:20;;;;;;;20.63;11.65;;;19.90;99.90;;;;;;5037139;28;20130;-72
2022/06/03 01:36:59;;;;;;;23.30;11.38;;;20.00;99.90;;;;;;5039135;28;20100;-70
2022/06/03 01:39:53;;;;;;;20.23;11.43;;;20.00;99.90;;;;;;5034592;28;20030;-72
2022/06/03 01:42:37;;;;;;;19.33;10.40;;;20.00;99.90;;;;;;5038905;28;20035;-71
2022/06/03 01:45:37;;;;;;;19.13;9.48;;;20.10;99.90;;;;;;5024259;28;20091;-71
2022/06/03 01:48:02;;;;;;;21.55;9.65;;;20.30;99.90;;;;;;5037491;28;20133;-70
2022/06/03 01:50:55;;;;;;;15.75;9.25;;;20.30;99.90;;;;;;5025210;28;20049;-72
2022/06/03 01:53:24;;;;;;;19.35;9.70;;;20.40;99.90;;;;;;5019372;28;20033;-71
2022/06/03 01:55:59;;;;;;;21.10;9.57;;;20.40;99.90;;;;;;5039870;28;20037;-71
2022/06/03 01:58:49;;;;;;;18.50;9.02;;;20.50;99.90;;;;;;5036439;28;20043;-72
2022/06/03 02:01:39;;;;;;;24.25;9.77;;;20.60;99.90;;;;;;5036514;28;20034;-71
2022/06/03 02:04:35;;;;;;;16.38;9.40;;;20.60;99.90;;;;;;5038368;28;20065;-71
2022/06/03 02:07:00;;;;;;;12.23;8.07;;;20.60;99.90;;;;;;5025215;28;20037;-71
2022/06/03 02:09:38;;;;;;;18.10;8.80;;;20.60;99.90;;;;;;5027086;28;20409;-71
2022/06/03 02:12:25;;;;;;;17.08;9.30;;;20.60;99.90;;;;;;5022120;28;20065;-72
2022/06/03 02:15:17;;;;;;;20.27;9.52;;;20.60;99.90;;;;;;5019590;28;20112;-71
2022/06/03 02:17:49;;;;;;;16.73;9.18;;;20.50;99.90;;;;;;5026885;28;20041;-71
2022/06/03 02:20:31;;;;;;;19.57;10.37;;;20.40;99.90;;;;;;5036286;28;20449;-71
2022/06/03 02:23:26;;;;;;;19.73;9.30;;;20.30;99.90;;;;;;5036766;28;20263;-71
2022/06/03 02:25:55;;;;;;;23.05;10.27;;;20.30;99.90;;;;;;5015034;28;20041;-71
2022/06/03 02:32:04;;;;;;;22.10;9.95;;;20.20;99.90;;;;;;5022527;28;20048;-72
2022/06/03 02:35:12;;;;;;;15.35;9.00;;;20.20;99.90;;;;;;5054744;28;20203;-72
2022/06/03 02:38:02;;;;;;;15.23;8.63;;;20.20;99.90;;;;;;5020688;28;20703;-71
2022/06/03 02:40:45;;;;;;;18.00;9.20;;;20.20;99.90;;;;;;5020028;28;20038;-70
2022/06/03 02:43:11;;;;;;;;;;;20.30;99.90;;;;;;5022008;28;20042;-71
2022/06/03 02:45:43;;;;;;;22.75;10.98;;;20.30;99.90;;;;;;5039821;28;20307;-70
2022/06/03 02:48:28;;;;;;;16.97;10.60;;;20.30;99.90;;;;;;5034241;28;20083;-71
2022/06/03 02:51:09;;;;;;;26.85;10.45;;;20.30;99.90;;;;;;5035090;28;20065;-71
2022/06/03 02:53:53;;;;;;;22.77;11.70;;;20.30;99.90;;;;;;5023547;28;20460;-72
2022/06/03 02:57:03;;;;;;;20.33;11.00;;;20.30;99.90;;;;;;5036782;28;20080;-71
2022/06/03 02:59:47;;;;;;;16.98;9.60;;;20.40;99.90;;;;;;5031960;28;20031;-71
2022/06/03 03:02:17;;;;;;;20.40;9.10;;;20.40;99.90;;;;;;5020036;28;20468;-71
2022/06/03 03:04:49;;;;;;;17.02;8.82;;;20.50;99.90;;;;;;5021982;28;20115;-71
2022/06/03 03:07:30;;;;;;;16.42;8.48;;;20.60;99.90;;;;;;5021349;28;20099;-71
2022/06/03 03:10:05;;;;;;;20.63;8.52;;;20.70;99.90;;;;;;5055086;28;20069;-71
2022/06/03 03:12:50;;;;;;;19.75;9.45;;;20.80;99.90;;;;;;5021486;28;20049;-72
2022/06/03 03:15:49;;;;;;;16.77;9.70;;;20.80;99.90;;;;;;5021088;28;20061;-72
2022/06/03 03:18:26;;;;;;;19.08;9.27;;;20.80;99.90;;;;;;5031121;28;20562;-71
2022/06/03 03:21:18;;;;;;;16.42;9.20;;;20.80;99.90;;;;;;5040452;28;20761;-72
2022/06/03 03:23:45;;;;;;;17.15;9.85;;;20.80;99.90;;;;;;5018364;28;20122;-71
2022/06/03 03:26:39;;;;;;;26.58;13.23;;;20.90;99.90;;;;;;5038422;28;20037;-71
2022/06/03 03:29:05;;;;;;;17.92;7.75;;;20.90;99.90;;;;;;5037008;28;20397;-72
2022/06/03 03:32:05;;;;;;;12.95;5.78;;;21.00;99.90;;;;;;5021263;28;20037;-71
2022/06/03 03:35:01;;;;;;;13.75;5.53;;;21.00;99.90;;;;;;5016511;28;20375;-72
2022/06/03 03:38:02;;;;;;;12.70;5.18;;;21.10;99.90;;;;;;5032666;28;20124;-71
2022/06/03 03:40:59;;;;;;;14.25;5.38;;;21.20;99.90;;;;;;5002507;28;20034;-71
2022/06/03 03:43:43;;;;;;;12.18;5.05;;;21.20;99.90;;;;;;5050227;28;20038;-71
2022/06/03 03:46:25;;;;;;;13.30;4.47;;;21.20;99.90;;;;;;5051309;28;20100;-70
2022/06/03 03:49:06;;;;;;;14.38;5.68;;;21.40;99.90;;;;;;5005942;28;20045;-71
2022/06/03 03:51:45;;;;;;;13.15;5.25;;;21.40;99.90;;;;;;4997447;28;20045;-71
2022/06/03 03:54:49;;;;;;;14.50;5.60;;;21.40;99.90;;;;;;5000623;28;20053;-71
2022/06/03 03:57:52;;;;;;;13.13;5.95;;;21.40;99.90;;;;;;5001527;28;20497;-71
2022/06/03 04:00:55;;;;;;;18.02;7.15;;;21.50;99.90;;;;;;4999586;28;20042;-72
2022/06/03 04:03:59;;;;;;;12.73;6.05;;;21.40;99.90;;;;;;5046622;28;20036;-71
2022/06/03 04:06:56;;;;;;;16.98;6.05;;;21.40;99.90;;;;;;5017948;28;20049;-71
2022/06/03 04:09:34;;;;;;;12.15;5.00;;;21.30;99.90;;;;;;5000191;28;20116;-71
2022/06/03 04:12:07;;;;;;;12.77;5.57;;;21.30;99.90;;;;;;5002707;28;20048;-72
2022/06/03 04:14:53;;;;;;;14.90;5.72;;;21.30;99.90;;;;;;4997166;28;20037;-71
2022/06/03 04:17:44;;;;;;;12.05;5.50;;;21.30;99.90;;;;;;5046567;28;20045;-72
2022/06/03 04:20:22;;;;;;;11.68;5.78;;;21.30;99.90;;;;;;5035861;28;20037;-71
2022/06/03 04:23:15;;;;;;;16.83;4.65;;;21.40;99.90;;;;;;5033645;28;20064;-72
2022/06/03 04:26:20;;;;;;;11.55;4.47;;;21.40;99.90;;;;;;5016256;28;20029;-71
2022/06/03 04:29:50;;;;;;;13.73;5.03;;;21.50;99.90;;;;;;5035211;28;20049;-72
2022/06/03 04:32:53;;;;;;;12.50;5.45;;;21.40;99.90;;;;;;5013081;28;20029;-71
2022/06/03 04:35:50;;;;;;;9.85;5.55;;;21.40;99.90;;;;;;5038324;28;20112;-73
2022/06/03 04:38:34;;;;;;;12.82;5.63;;;21.40;99.90;;;;;;5032513;28;20049;-71
2022/06/03 04:41:27;;;;;;;12.50;5.63;;;21.30;99.90;;;;;;5030581;28;20579;-72
2022/06/03 04:44:24;;;;;;;13.13;6.05;;;21.20;99.90;;;;;;5014628;28;20041;-72
2022/06/03 04:47:23;;;;;;;17.75;6.57;;;21.20;99.90;;;;;;5016947;28;20034;-71
2022/06/03 04:50:05;;;;;;;15.73;6.20;;;21.10;99.90;;;;;;5051512;28;20497;-71
2022/06/03 04:52:35;;;;;;;16.27;7.57;;;21.10;99.90;;;;;;5015565;28;20567;-73
2022/06/03 04:55:28;;;;;;;12.27;6.60;;;20.90;99.90;;;;;;5036291;28;20038;-72
2022/06/03 04:58:15;;;;;;;18.67;7.97;;;20.90;99.90;;;;;;5021369;28;20044;-71
2022/06/03 05:01:00;;;;;;;16.27;7.25;;;20.80;99.90;;;;;;5016519;28;20029;-71
2022/06/03 05:03:56;;;;;;;15.38;7.35;;;20.70;99.90;;;;;;5029783;28;20037;-72
2022/06/03 05:07:02;;;;;;;15.35;8.13;;;20.70;99.90;;;;;;5019329;28;20037;-70
2022/06/03 05:09:43;;;;;;;16.17;7.40;;;20.60;99.90;;;;;;5034836;28;20045;-72
2022/06/03 05:12:20;;;;;;;16.02;7.78;;;20.60;99.90;;;;;;5022580;28;20432;-72
2022/06/03 05:15:11;;;;;;;18.63;8.35;;;20.60;99.90;;;;;;5019304;28;20095;-72
2022/06/03 05:18:05;;;;;;;18.73;8.60;;;20.60;99.90;;;;;;5054370;28;20039;-72
2022/06/03 05:21:09;;;;;;;14.02;7.88;;;20.60;99.90;;;;;;5017472;28;20136;-71
2022/06/03 05:24:13;;;;;;;22.60;7.22;;;20.60;99.90;;;;;;5025072;28;20045;-72
2022/06/03 05:26:42;;;;;;;19.02;7.32;;;20.50;99.90;;;;;;5018969;28;20138;-73
2022/06/03 05:29:28;;;;;;;19.92;7.20;;;20.50;99.90;;;;;;5018099;28;20048;-71
2022/06/03 05:32:23;;;;;;;17.95;7.00;;;20.50;99.90;;;;;;5018563;28;20041;-72
2022/06/03 05:35:04;;;;;;;21.13;10.57;;;20.60;99.90;;;;;;5007395;28;20079;-72
2022/06/03 05:37:53;;;;;;;20.80;10.40;;;20.60;99.90;;;;;;5051537;28;20132;-72
2022/06/03 05:40:36;;;;;;;17.42;9.85;;;20.60;99.90;;;;;;5021059;28;20104;-72
2022/06/03 05:43:17;;;;;;;15.95;8.45;;;20.60;99.90;;;;;;5032695;28;20101;-72
2022/06/03 05:46:14;;;;;;;18.63;8.52;;;20.60;99.90;;;;;;5035230;28;20040;-71
2022/06/03 05:49:15;;;;;;;17.60;8.38;;;20.60;99.90;;;;;;5029869;28;20156;-72
2022/06/03 05:51:47;;;;;;;18.38;8.38;;;20.80;99.90;;;;;;5019653;28;20041;-71
2022/06/03 05:54:39;;;;;;;13.20;7.85;;;20.90;99.90;;;;;;5019490;28;20042;-71
2022/06/03 05:57:14;;;;;;;16.93;8.30;;;21.00;99.90;;;;;;5032795;28;20049;-72
2022/06/03 05:59:54;;;;;;;14.43;8.43;;;21.00;99.90;;;;;;5042245;28;21025;-71
2022/06/03 06:02:54;;;;;;;16.17;8.93;;;21.10;99.90;;;;;;5037191;28;20056;-70
2022/06/03 06:05:37;;;;;;;15.93;9.32;;;21.20;99.90;;;;;;5030519;28;20034;-71
2022/06/03 06:08:03;;;;;;;16.80;9.10;;;21.30;99.90;;;;;;5017877;28;20094;-72
2022/06/03 06:10:58;;;;;;;19.33;10.20;;;21.30;99.90;;;;;;5019617;28;20121;-72
2022/06/03 06:13:39;;;;;;;19.10;10.60;;;21.30;99.90;;;;;;5036174;28;20089;-71
2022/06/03 06:16:19;;;;;;;20.55;10.80;;;21.40;99.90;;;;;;5021377;28;20037;-72
2022/06/03 06:18:48;;;;;;;18.05;10.30;;;21.40;99.90;;;;;;5021027;28;20446;-72
2022/06/03 06:21:52;;;;;;;19.23;10.27;;;21.40;99.90;;;;;;5025270;28;20059;-73
2022/06/03 06:24:21;;;;;;;23.30;11.05;;;21.40;99.90;;;;;;5038909;28;20045;-72
2022/06/03 06:27:06;;;;;;;20.80;10.35;;;21.40;99.90;;;;;;5018626;28;20424;-71
2022/06/03 06:30:05;;;;;;;26.00;9.88;;;21.40;99.90;;;;;;5024677;28;20029;-72
2022/06/03 06:32:50;;;;;;;20.70;10.65;;;21.50;99.90;;;;;;5021875;28;20042;-71
2022/06/03 06:35:51;;;;;;;19.85;9.75;;;21.60;99.90;;;;;;5034313;28;20044;-72
2022/06/03 06:38:32;;;;;;;16.30;8.25;;;21.80;99.90;;;;;;5038773;28;20038;-71
2022/06/03 06:41:13;;;;;;;19.42;7.82;;;21.80;99.90;;;;;;5020550;28;20038;-71
2022/06/03 06:43:39;;;;;;;12.85;6.97;;;22.00;99.90;;;;;;5021965;28;20045;-72
2022/06/03 06:46:30;;;;;;;15.23;7.85;;;21.80;99.90;;;;;;5020599;28;20078;-72
2022/06/03 06:49:34;;;;;;;17.33;7.35;;;21.80;99.90;;;;;;5019928;28;20042;-71
2022/06/03 06:52:18;;;;;;;14.55;6.93;;;21.80;99.90;;;;;;5019881;28;20034;-71
2022/06/03 06:55:05;;;;;;;15.35;6.78;;;21.80;99.90;;;;;;5022589;28;20053;-71
2022/06/03 06:57:35;;;;;;;13.65;6.40;;;21.90;99.90;;;;;;5019614;28;20653;-71
2022/06/03 07:00:24;;;;;;;14.10;6.43;;;21.90;99.90;;;;;;5024379;28;20044;-71
2022/06/03 07:02:53;;;;;;;12.57;6.38;;;21.80;99.90;;;;;;5020319;28;20036;-72
2022/06/03 07:05:28;;;;;;;19.35;6.85;;;21.80;99.90;;;;;;5033073;28;20038;-71
2022/06/03 07:08:28;;;;;;;15.80;6.75;;;21.90;99.90;;;;;;5038903;28;20064;-71
2022/06/03 07:10:56;;;;;;;12.05;6.05;;;21.90;99.90;;;;;;5021346;28;20071;-71
2022/06/03 07:13:30;;;;;;;18.00;5.85;;;22.00;99.90;;;;;;5031343;28;20125;-72
2022/06/03 07:19:47;;;;;;;13.02;5.78;;;22.10;99.90;;;;;;5034351;28;20147;-72
2022/06/03 07:22:12;;;;;;;14.25;5.45;;;22.20;99.90;;;;;;5024172;28;20608;-72
2022/06/03 07:24:45;;;;;;;12.40;5.80;;;22.20;99.90;;;;;;5025037;28;20120;-74
2022/06/03 07:27:20;;;;;;;14.30;6.00;;;22.30;99.90;;;;;;5023864;28;20050;-75
2022/06/03 07:29:59;;;;;;;10.55;5.30;;;22.40;99.90;;;;;;5032954;28;20037;-76
2022/06/03 07:32:31;;;;;;;14.50;4.97;;;22.40;99.90;;;;;;5025460;28;20665;-76
2022/06/03 07:35:14;;;;;;;12.10;5.07;;;22.50;99.90;;;;;;5036084;28;20183;-75
2022/06/03 07:37:46;;;;;;;9.45;4.57;;;22.50;99.90;;;;;;5025602;28;20239;-75
2022/06/03 07:40:19;;;;;;;;;;;22.60;99.90;;;;;;5030440;28;20037;-75
2022/06/03 07:42:51;;;;;;;15.13;5.03;;;22.70;99.90;;;;;;5032499;28;19939;-75
2022/06/03 07:45:38;;;;;;;12.38;4.85;;;22.80;99.90;;;;;;5023970;28;20036;-74
2022/06/03 07:48:18;;;;;;;11.85;4.88;;;22.90;99.90;;;;;;5047245;28;20512;-75
2022/06/03 07:51:11;;;;;;;10.35;4.75;;;23.00;99.90;;;;;;5020869;28;20485;-77
2022/06/03 07:54:04;;;;;;;13.75;4.70;;;23.00;99.90;;;;;;5016848;28;20041;-74
2022/06/03 07:56:32;;;;;;;9.65;4.10;;;23.20;99.90;;;;;;5037417;28;20041;-74
2022/06/03 07:59:12;;;;;;;10.30;4.45;;;23.30;99.90;;;;;;5039023;28;20057;-75
2022/06/03 08:01:42;;;;;;;11.52;4.20;;;23.50;99.90;;;;;;4983430;28;20041;-75
2022/06/03 08:04:24;;;;;;;13.43;4.97;;;23.60;99.90;;;;;;5026358;28;20048;-75
2022/06/03 08:12:28;;;;;;;9.80;3.90;;;24.00;99.90;;;;;;4988456;28;20100;-74
2022/06/03 08:14:54;;;;;;;8.52;3.58;;;24.10;99.90;;;;;;4991262;28;20057;-76
2022/06/03 08:17:23;;;;;;;14.60;3.45;;;24.30;99.90;;;;;;4992108;28;20092;-76
2022/06/03 08:19:52;;;;;;;9.43;3.42;;;24.40;99.90;;;;;;4991002;28;20034;-75
2022/06/03 08:22:23;;;;;;;10.27;3.67;;;24.60;99.90;;;;;;4988125;28;20153;-76
2022/06/03 08:24:56;;;;;;;9.55;3.55;;;24.70;99.90;;;;;;4991599;28;20045;-74
2022/06/03 08:27:29;;;;;;;9.57;3.40;;;24.80;99.90;;;;;;5022304;28;20159;-76
2022/06/03 08:30:04;;;;;;;9.57;3.13;;;25.00;99.90;;;;;;4991340;28;20069;-76
2022/06/03 08:32:37;;;;;;;7.72;2.72;;;25.20;99.90;;;;;;4999936;28;20137;-75
2022/06/03 08:35:10;;;;;;;7.40;3.00;;;25.30;99.90;;;;;;4991853;28;20111;-76
2022/06/03 08:37:48;;;;;;;8.45;2.85;;;25.50;99.90;;;;;;4993018;28;20132;-76
2022/06/03 08:40:23;;;;;;;11.32;2.65;;;25.60;99.30;;;;;;4990465;28;20038;-75
2022/06/03 08:43:02;;;;;;;8.25;2.63;;;25.70;99.10;;;;;;4985882;28;20141;-76
2022/06/03 08:45:28;;;;;;;6.90;2.50;;;25.90;98.30;;;;;;5039738;28;20044;-76
2022/06/03 08:47:56;;;;;;;10.25;3.10;;;26.10;97.60;;;;;;5010028;28;20085;-74
2022/06/03 08:50:51;;;;;;;9.52;2.28;;;26.10;96.40;;;;;;5017777;28;20070;-75
2022/06/03 08:53:22;;;;;;;7.13;2.75;;;26.10;95.50;;;;;;5043910;28;20083;-75
2022/06/03 08:56:24;;;;;;;11.07;2.53;;;26.20;95.30;;;;;;5039907;28;20045;-76
2022/06/03 08:59:05;;;;;;;11.95;3.05;;;26.50;95.00;;;;;;5001673;28;20477;-76
2022/06/03 09:01:58;;;;;;;12.70;2.92;;;26.40;95.40;;;;;;5006710;28;20037;-75
2022/06/03 09:04:51;;;;;;;13.52;3.53;;;26.40;95.50;;;;;;5022601;28;20038;-76
2022/06/03 09:07:40;;;;;;;13.60;3.08;;;26.40;96.20;;;;;;5035634;28;20041;-75
2022/06/03 09:10:16;;;;;;;10.20;2.80;;;26.40;95.40;;;;;;5020699;28;20041;-75
2022/06/03 09:13:04;;;;;;;10.15;3.05;;;26.50;95.80;;;;;;5024703;28;20046;-74
2022/06/03 09:15:38;;;;;;;10.90;3.13;;;26.60;95.80;;;;;;5013134;28;20041;-75
2022/06/03 09:18:13;;;;;;;17.08;3.40;;;26.60;96.10;;;;;;5028982;28;20036;-75
2022/06/03 09:20:45;;;;;;;11.75;3.15;;;26.70;95.70;;;;;;5012790;28;20045;-76
2022/06/03 09:23:17;;;;;;;14.45;2.90;;;26.80;95.90;;;;;;5028890;28;20501;-75
2022/06/03 09:25:48;;;;;;;10.68;3.42;;;26.80;95.50;;;;;;5013722;28;20057;-75
2022/06/03 09:28:32;;;;;;;16.85;3.50;;;26.90;95.90;;;;;;5026268;28;20137;-75
2022/06/03 09:31:04;;;;;;;12.15;3.00;;;27.00;95.60;;;;;;5013654;28;20417;-75
2022/06/03 09:33:33;;;;;;;7.70;3.25;;;26.80;95.80;;;;;;4990129;28;20101;-75
2022/06/03 09:36:03;;;;;;;7.53;3.00;;;27.10;95.60;;;;;;5030068;28;20397;-75
2022/06/03 09:38:39;;;;;;;8.18;3.55;;;27.00;95.50;;;;;;5045424;28;20444;-75
2022/06/03 09:41:06;;;;;;;11.68;2.88;;;27.20;95.30;;;;;;5018059;28;20065;-74
2022/06/03 09:43:36;;;;;;;11.25;3.40;;;27.10;95.30;;;;;;5010528;28;20373;-75
2022/06/03 09:46:05;;;;;;;12.38;3.00;;;27.20;94.80;;;;;;5001076;28;20496;-75
2022/06/03 09:48:36;;;;;;;14.25;2.63;;;27.20;94.70;;;;;;5013688;28;20060;-75
2022/06/03 09:51:14;;;;;;;10.52;2.58;;;27.30;94.30;;;;;;5002619;28;20107;-75
2022/06/03 09:53:43;;;;;;;16.10;2.97;;;27.70;93.80;;;;;;5020009;28;20045;-75
2022/06/03 09:56:32;;;;;;;9.85;2.95;;;27.80;93.30;;;;;;5032417;28;20038;-75
2022/06/03 09:59:01;;;;;;;10.35;3.35;;;27.80;93.50;;;;;;5016089;28;20050;-76
2022/06/03 10:01:29;;;;;;;19.00;3.95;;;27.90;94.50;;;;;;5015342;28;20128;-75
2022/06/03 10:04:08;;;;;;;13.43;4.15;;;27.80;96.30;;;;;;5042875;28;20040;-76
2022/06/03 10:06:46;;;;;;;11.68;3.72;;;28.00;97.20;;;;;;5024457;28;20130;-75
2022/06/03 10:17:54;;;;;;;13.60;3.95;;;27.50;99.50;;;;;;5016447;28;20099;-76
2022/06/03 10:20:20;;;;;;;12.68;4.90;;;27.50;99.90;;;;;;5015567;28;20072;-76
2022/06/03 10:22:48;;;;;;;13.43;4.38;;;27.10;99.90;;;;;;4990921;28;20586;-75
2022/06/03 10:25:15;;;;;;;10.63;4.35;;;26.80;99.90;;;;;;5018370;28;20098;-76
2022/06/03 10:27:46;;;;;;;11.13;4.93;;;26.90;99.90;;;;;;5007661;28;20075;-76
2022/06/03 10:30:26;;;;;;;13.63;5.22;;;26.80;99.90;;;;;;5013326;28;20041;-75
2022/06/03 10:32:52;;;;;;;11.98;4.63;;;26.30;99.90;;;;;;5014574;28;20205;-76
2022/06/03 10:35:18;;;;;;;11.85;5.18;;;26.40;99.90;;;;;;5017574;28;20037;-75
2022/06/03 10:37:55;;;;;;;15.43;4.85;;;26.20;99.90;;;;;;5019213;28;20111;-76
2022/06/03 10:40:24;;;;;;;14.63;5.55;;;26.10;99.90;;;;;;5020110;28;20057;-74
2022/06/03 10:42:56;;;;;;;13.70;4.93;;;26.30;99.90;;;;;;5045616;28;20059;-76
2022/06/03 10:45:28;;;;;;;;;;;26.60;99.90;;;;;;5017796;28;20042;-75
2022/06/03 10:47:54;;;;;;;20.55;6.10;;;27.00;99.90;;;;;;5024845;28;19918;-75
2022/06/03 10:50:31;;;;;;;14.68;5.22;;;26.80;99.90;;;;;;5035904;28;20050;-76
2022/06/03 11:02:15;;;;;;;14.13;5.18;;;28.10;99.90;;;;;;5023048;28;20133;-76
2022/06/03 11:04:41;;;;;;;17.83;5.60;;;27.90;99.90;;;;;;5033806;28;20452;-74
2022/06/03 11:07:26;;;;;;;18.05;5.60;;;27.20;99.90;;;;;;5026262;28;20112;-75
2022/06/03 11:09:58;;;;;;;11.23;5.32;;;27.60;99.90;;;;;;5059754;28;20103;-75
2022/06/03 11:12:29;;;;;;;12.43;5.43;;;28.00;99.90;;;;;;5033832;28;20505;-75
2022/06/03 11:14:55;;;;;;;14.10;6.60;;;28.30;99.90;;;;;;5028813;28;20124;-77
2022/06/03 11:17:40;;;;;;;15.95;5.63;;;27.50;99.90;;;;;;5044697;28;20493;-76
2022/06/03 11:20:33;;;;;;;11.88;5.38;;;27.80;99.90;;;;;;5041893;28;20111;-76
2022/06/03 11:23:02;;;;;;;14.77;5.63;;;28.10;99.90;;;;;;5006289;28;20041;-75
2022/06/03 11:25:31;;;;;;;12.55;5.85;;;28.30;99.90;;;;;;5023060;28;20041;-76
2022/06/03 11:28:03;;;;;;;13.75;5.70;;;28.20;99.90;;;;;;5011467;28;20069;-77
2022/06/03 11:31:09;;;;;;;11.48;5.68;;;27.80;99.90;;;;;;5009595;28;20076;-76
2022/06/03 11:33:46;;;;;;;14.02;5.22;;;28.20;99.90;;;;;;5010120;28;20044;-76
2022/06/03 11:37:08;;;;;;;13.27;5.07;;;28.00;99.90;;;;;;5026240;28;20025;-75
2022/06/03 11:39:53;;;;;;;14.93;5.55;;;28.60;99.90;;;;;;5006408;28;20188;-75
2022/06/03 11:42:33;;;;;;;13.27;5.18;;;29.00;99.90;;;;;;5029015;28;20037;-76
2022/06/03 11:45:09;;;;;;;11.77;5.07;;;29.00;99.90;;;;;;4991716;28;20059;-77
2022/06/03 11:47:49;;;;;;;11.45;4.57;;;29.20;99.90;;;;;;4995531;28;20667;-75
2022/06/03 11:50:19;;;;;;;13.43;5.00;;;29.50;99.90;;;;;;5009858;28;20038;-77
2022/06/03 11:52:49;;;;;;;13.80;5.32;;;29.40;99.90;;;;;;4991185;28;20050;-76
2022/06/03 11:55:16;;;;;;;12.88;5.43;;;28.70;99.90;;;;;;4999183;28;20125;-79
2022/06/03 11:57:58;;;;;;;15.18;4.90;;;29.00;99.90;;;;;;4993337;28;20045;-75
2022/06/03 12:00:26;;;;;;;12.57;6.00;;;29.40;99.90;;;;;;4998010;28;20018;-75
2022/06/03 12:03:24;;;;;;;17.48;5.40;;;29.60;99.90;;;;;;5032633;28;20052;-81
2022/06/03 12:05:57;;;;;;;16.40;6.60;;;29.70;99.90;;;;;;4994472;28;20714;-77
2022/06/03 12:08:55;;;;;;;14.23;5.38;;;30.00;99.90;;;;;;5002329;28;20030;-75
2022/06/03 12:14:58;;;;;;;12.32;5.00;;;30.30;99.90;;;;;;5001946;28;20133;-76
2022/06/03 12:17:32;;;;;;;16.70;5.05;;;30.50;99.80;;;;;;5002961;28;20046;-76
2022/06/03 12:19:59;;;;;;;15.88;4.30;;;30.50;99.40;;;;;;5013964;28;20038;-76
2022/06/03 12:22:28;;;;;;;12.30;5.20;;;30.20;99.80;;;;;;5043817;28;20496;-75
2022/06/03 12:24:54;;;;;;;11.00;5.00;;;30.70;99.50;;;;;;5008392;28;20095;-77
2022/06/03 12:27:40;;;;;;;12.23;5.20;;;31.10;99.10;;;;;;5002892;28;20045;-75
2022/06/03 12:30:19;;;;;;;12.80;4.40;;;31.40;98.80;;;;;;5007830;28;20152;-77
2022/06/03 12:32:57;;;;;;;10.60;4.18;;;31.90;98.00;;;;;;5003749;28;20049;-76
2022/06/03 12:35:45;;;;;;;13.52;4.68;;;32.10;97.80;;;;;;5035210;28;20041;-76
2022/06/03 12:38:20;;;;;;;15.65;4.85;;;32.20;97.40;;;;;;5043684;28;20111;-76
2022/06/03 12:40:52;;;;;;;13.98;5.18;;;31.40;98.00;;;;;;5023398;28;20043;-76
2022/06/03 12:43:29;;;;;;;14.00;4.95;;;31.70;98.40;;;;;;5023077;28;20132;-76
2022/06/03 12:46:10;;;;;;;11.48;4.07;;;31.50;98.20;;;;;;5039618;28;20052;-78
2022/06/03 12:48:51;;;;;;;13.75;4.65;;;31.30;98.30;;;;;;5037016;28;20060;-77
2022/06/03 12:51:55;;;;;;;15.43;4.25;;;30.70;98.50;;;;;;5031532;28;20037;-78
2022/06/03 12:54:22;;;;;;;12.30;4.65;;;30.20;99.20;;;;;;5037064;28;20497;-76
2022/06/03 12:56:55;;;;;;;12.43;4.70;;;30.40;99.60;;;;;;5022335;28;20114;-76
2022/06/03 12:59:37;;;;;;;14.95;4.30;;;30.40;99.30;;;;;;5021690;28;20041;-76
2022/06/03 13:02:18;;;;;;;17.35;5.18;;;30.60;99.40;;;;;;5035071;28;20037;-77
2022/06/03 13:04:55;;;;;;;14.98;4.82;;;30.70;99.50;;;;;;5022337;28;20030;-76
2022/06/03 13:07:28;;;;;;;11.10;4.60;;;30.40;99.90;;;;;;5024122;28;20501;-76
2022/06/03 13:10:03;;;;;;;11.60;4.50;;;31.10;99.30;;;;;;5036696;28;20493;-76
2022/06/03 13:12:32;;;;;;;12.02;4.70;;;31.50;98.90;;;;;;5016586;28;20117;-76
2022/06/03 13:15:17;;;;;;;16.20;5.32;;;31.50;98.50;;;;;;5035284;28;20484;-75
2022/06/03 13:18:10;;;;;;;17.13;5.10;;;31.10;99.20;;;;;;5015033;28;20038;-76
2022/06/03 13:20:49;;;;;;;17.20;5.20;;;31.00;99.30;;;;;;5036565;28;20489;-75
2022/06/03 13:23:37;;;;;;;17.30;5.63;;;31.60;99.20;;;;;;5021094;28;20106;-77
2022/06/03 13:26:22;;;;;;;14.50;4.93;;;32.10;98.50;;;;;;5026583;28;20043;-75
2022/06/03 13:28:50;;;;;;;13.93;4.32;;;32.50;98.20;;;;;;5024081;28;20123;-75
2022/06/03 13:31:41;;;;;;;12.35;4.40;;;32.50;97.60;;;;;;5027628;28;20099;-76
2022/06/03 13:34:08;;;;;;;15.30;4.45;;;32.70;97.70;;;;;;5027948;28;20515;-75
2022/06/03 13:36:38;;;;;;;13.70;4.70;;;32.80;97.20;;;;;;5023714;28;20393;-75
2022/06/03 13:39:10;;;;;;;13.80;4.70;;;33.00;97.20;;;;;;5048626;28;20136;-77
2022/06/03 13:44:59;;;;;;;17.92;5.07;;;33.00;97.20;;;;;;5022673;28;19975;-75
2022/06/03 13:47:35;;;;;;;19.80;4.55;;;32.50;97.60;;;;;;5003322;28;20033;-78
2022/06/03 13:50:04;;;;;;;18.15;4.07;;;32.80;97.20;;;;;;5021907;28;20465;-76
2022/06/03 13:52:37;;;;;;;16.00;4.65;;;32.50;97.00;;;;;;5034409;28;20033;-75
2022/06/03 13:55:25;;;;;;;14.68;5.25;;;32.50;97.20;;;;;;5032679;28;20049;-75
2022/06/03 13:58:18;;;;;;;13.18;4.10;;;32.30;97.50;;;;;;5051402;28;20049;-76
2022/06/03 14:00:50;;;;;;;17.58;4.13;;;31.90;97.90;;;;;;5023489;28;20070;-75
2022/06/03 14:03:24;;;;;;;16.40;4.38;;;32.00;98.20;;;;;;5027346;28;20049;-77
2022/06/03 14:06:06;;;;;;;18.15;4.68;;;32.20;98.10;;;;;;5032766;28;20041;-75
2022/06/03 14:08:46;;;;;;;12.13;4.22;;;32.30;97.90;;;;;;5022692;28;20052;-75
2022/06/03 14:11:20;;;;;;;16.50;4.82;;;32.50;97.90;;;;;;5013228;28;20621;-75
2022/06/03 14:14:01;;;;;;;13.70;4.18;;;32.90;97.60;;;;;;5020918;28;20061;-75
2022/06/03 14:16:55;;;;;;;15.27;4.47;;;32.90;97.30;;;;;;5021325;28;20038;-76
2022/06/03 14:19:40;;;;;;;15.23;4.60;;;32.70;97.50;;;;;;5034339;28;20191;-76
2022/06/03 14:22:19;;;;;;;13.10;4.45;;;32.70;97.50;;;;;;5006497;28;20044;-75
2022/06/03 14:25:01;;;;;;;14.57;4.70;;;32.60;97.60;;;;;;5019405;28;20432;-76
2022/06/03 14:28:05;;;;;;;15.82;5.90;;;32.80;97.50;;;;;;5015575;28;20029;-77
2022/06/03 14:30:31;;;;;;;18.35;5.05;;;32.10;98.00;;;;;;5013018;28;20045;-74